createdAt,value
2022-12-31T00:00:51.478Z,100218.81
2022-12-31T00:03:19.685Z,100224.63
2022-12-31T00:05:49.135Z,100213.13
2022-12-31T00:08:17.072Z,100216.44
2022-12-31T00:10:45.010Z,100215.28
2022-12-31T00:13:14.334Z,100216.84
2022-12-31T00:15:43.314Z,100218.88
2022-12-31T00:18:13.097Z,100212.78
2022-12-31T00:20:42.102Z,100228.56
2022-12-31T00:23:11.853Z,100236.50
2022-12-31T00:25:39.799Z,100235.66
2022-12-31T00:28:07.693Z,100227.50
2022-12-31T00:30:35.760Z,100238.94
2022-12-31T00:33:03.733Z,100242.03
2022-12-31T00:35:31.835Z,100236.34
2022-12-31T00:37:59.757Z,100233.38
2022-12-31T00:40:29.985Z,100238.94
2022-12-31T00:42:57.933Z,100255.09
2022-12-31T00:45:25.850Z,100250.81
2022-12-31T00:47:54.881Z,100252.22
2022-12-31T00:50:22.920Z,100262.00
2022-12-31T00:52:52.263Z,100251.84
2022-12-31T00:55:21.059Z,100255.28
2022-12-31T00:57:50.335Z,100258.66
2022-12-31T01:00:18.440Z,100252.91
2022-12-31T01:02:46.395Z,100258.09
2022-12-31T01:05:15.104Z,100251.53
2022-12-31T01:07:43.013Z,100257.78
2022-12-31T01:10:11.671Z,100264.50
2022-12-31T01:12:40.528Z,100261.53
2022-12-31T01:15:10.750Z,100268.31
2022-12-31T01:17:38.657Z,100275.53
2022-12-31T01:20:07.569Z,100269.19
2022-12-31T01:22:35.484Z,100273.31
2022-12-31T01:25:03.469Z,100281.09
2022-12-31T01:27:31.377Z,100284.50
2022-12-31T01:29:59.316Z,100292.16
2022-12-31T01:32:28.685Z,100283.31
2022-12-31T01:34:56.578Z,100294.09
2022-12-31T01:37:24.683Z,100285.19
2022-12-31T01:39:52.860Z,100276.75
2022-12-31T01:42:20.833Z,100282.53
2022-12-31T01:44:56.159Z,100285.19
2022-12-31T01:47:34.620Z,100275.38
2022-12-31T01:50:07.692Z,100281.38
2022-12-31T01:52:38.430Z,100284.66
2022-12-31T01:55:09.468Z,100287.03
2022-12-31T01:57:38.334Z,100280.88
2022-12-31T02:00:08.487Z,100273.34
2022-12-31T02:02:37.894Z,100273.88
2022-12-31T02:05:12.459Z,100275.59
2022-12-31T02:07:40.789Z,100272.31
2022-12-31T02:10:09.375Z,100286.34
2022-12-31T02:12:37.731Z,100288.91
2022-12-31T02:15:07.029Z,100289.84
2022-12-31T02:17:38.832Z,100287.00
2022-12-31T02:20:42.429Z,100286.91
2022-12-31T02:23:34.578Z,100300.16
2022-12-31T02:26:38.985Z,100309.00
2022-12-31T02:29:36.447Z,100297.94
2022-12-31T02:32:09.228Z,100303.84
2022-12-31T02:34:39.674Z,100294.84
2022-12-31T02:37:12.281Z,100304.09
2022-12-31T02:39:40.973Z,100312.66
2022-12-31T02:42:08.924Z,100312.91
2022-12-31T02:44:38.164Z,100318.13
2022-12-31T02:47:18.501Z,100326.47
2022-12-31T02:49:54.805Z,100337.25
2022-12-31T02:52:29.738Z,100332.13
2022-12-31T02:55:03.901Z,100333.03
2022-12-31T02:57:37.484Z,100330.84
2022-12-31T03:00:25.087Z,100346.88
2022-12-31T03:02:55.438Z,100365.31
2022-12-31T03:05:29.492Z,100369.28
2022-12-31T03:07:57.607Z,100363.31
2022-12-31T03:10:25.565Z,100368.41
2022-12-31T03:12:52.507Z,100370.72
2022-12-31T03:15:22.371Z,100375.31
2022-12-31T03:17:57.947Z,100377.41
2022-12-31T03:20:47.527Z,100379.75
2022-12-31T03:23:19.106Z,100384.84
2022-12-31T03:25:46.049Z,100384.22
2022-12-31T03:28:15.318Z,100375.56
2022-12-31T03:30:45.969Z,100397.59
2022-12-31T03:33:15.618Z,100395.88
2022-12-31T03:35:45.087Z,100392.91
2022-12-31T03:38:13.146Z,100395.53
2022-12-31T03:40:42.972Z,100385.59
2022-12-31T03:43:10.988Z,100386.06
2022-12-31T03:45:39.201Z,100378.34
2022-12-31T03:48:08.373Z,100384.34
2022-12-31T03:50:37.674Z,100400.03
2022-12-31T03:53:05.819Z,100389.19
2022-12-31T03:55:33.764Z,100388.41
2022-12-31T03:58:01.737Z,100391.06
2022-12-31T04:00:29.915Z,100392.19
2022-12-31T04:02:57.909Z,100392.00
2022-12-31T04:05:26.054Z,100395.75
2022-12-31T04:07:55.927Z,100414.44
2022-12-31T04:10:24.331Z,100426.44
2022-12-31T04:12:52.269Z,100427.44
2022-12-31T04:15:21.766Z,100429.16
2022-12-31T04:17:49.955Z,100439.44
2022-12-31T04:20:18.224Z,100432.69
2022-12-31T04:22:46.149Z,100431.53
2022-12-31T04:25:15.636Z,100432.53
2022-12-31T04:27:44.584Z,100443.59
2022-12-31T04:30:13.999Z,100439.97
2022-12-31T04:32:42.339Z,100431.81
2022-12-31T04:35:11.877Z,100431.81
2022-12-31T04:37:39.864Z,100419.41
2022-12-31T04:40:09.213Z,100427.53
2022-12-31T04:42:38.705Z,100437.38
2022-12-31T04:45:07.777Z,100418.38
2022-12-31T04:47:35.748Z,100401.34
2022-12-31T04:50:03.661Z,100407.25
2022-12-31T04:52:34.594Z,100402.13
2022-12-31T04:55:07.368Z,100401.81
2022-12-31T04:57:35.290Z,100406.09
2022-12-31T05:00:05.033Z,100401.00
2022-12-31T05:02:33.065Z,100406.09
2022-12-31T05:05:01.127Z,100396.56
2022-12-31T05:07:29.048Z,100382.13
2022-12-31T05:09:56.971Z,100368.56
2022-12-31T05:12:24.879Z,100368.47
2022-12-31T05:14:52.755Z,100361.03
2022-12-31T05:17:22.111Z,100363.63
2022-12-31T05:19:50.020Z,100363.63
2022-12-31T05:22:32.787Z,100371.19
2022-12-31T05:25:01.385Z,100368.06
2022-12-31T05:27:31.625Z,100372.63
2022-12-31T05:29:59.717Z,100391.66
2022-12-31T05:32:29.115Z,100400.19
2022-12-31T05:34:57.508Z,100403.78
2022-12-31T05:37:25.431Z,100407.81
2022-12-31T05:39:53.376Z,100414.09
2022-12-31T05:42:21.376Z,100416.38
2022-12-31T05:44:49.303Z,100421.94
2022-12-31T05:47:18.453Z,100429.53
2022-12-31T05:49:47.817Z,100427.09
2022-12-31T05:52:15.945Z,100424.38
2022-12-31T05:54:43.984Z,100425.38
2022-12-31T05:57:11.929Z,100416.13
2022-12-31T05:59:39.846Z,100416.84
2022-12-31T06:02:07.771Z,100424.84
2022-12-31T06:04:35.730Z,100424.53
2022-12-31T06:07:04.976Z,100418.72
2022-12-31T06:09:32.893Z,100444.25
2022-12-31T06:12:00.818Z,100447.38
2022-12-31T06:14:28.699Z,100444.53
2022-12-31T06:16:56.603Z,100443.81
2022-12-31T06:19:24.526Z,100445.94
2022-12-31T06:21:52.455Z,100447.66
2022-12-31T06:24:21.755Z,100437.69
2022-12-31T06:26:49.678Z,100433.41
2022-12-31T06:29:17.791Z,100440.84
2022-12-31T06:31:45.710Z,100426.28
2022-12-31T06:34:13.686Z,100422.56
2022-12-31T06:36:41.575Z,100428.84
2022-12-31T06:39:09.487Z,100428.13
2022-12-31T06:41:38.819Z,100435.56
2022-12-31T06:44:07.175Z,100424.44
2022-12-31T06:46:35.142Z,100439.41
2022-12-31T06:49:03.084Z,100425.88
2022-12-31T06:51:31.019Z,100425.44
2022-12-31T06:53:59.039Z,100415.88
2022-12-31T06:56:34.552Z,100419.88
2022-12-31T06:59:05.362Z,100429.28
2022-12-31T07:01:43.941Z,100436.13
2022-12-31T07:04:40.723Z,100439.69
2022-12-31T07:07:11.683Z,100442.41
2022-12-31T07:09:44.806Z,100450.09
2022-12-31T07:12:23.604Z,100452.53
2022-12-31T07:14:58.272Z,100444.25
2022-12-31T07:17:31.156Z,100446.53
2022-12-31T07:20:02.809Z,100446.69
2022-12-31T07:22:31.200Z,100452.38
2022-12-31T07:24:59.709Z,100458.94
2022-12-31T07:27:59.942Z,100457.38
2022-12-31T07:30:35.297Z,100451.38
2022-12-31T07:33:30.717Z,100444.38
2022-12-31T07:36:07.438Z,100457.91
2022-12-31T07:38:39.482Z,100462.34
2022-12-31T07:41:13.553Z,100474.31
2022-12-31T07:43:50.488Z,100472.31
2022-12-31T07:46:25.726Z,100471.19
2022-12-31T07:48:54.228Z,100474.88
2022-12-31T07:51:22.985Z,100487.88
2022-12-31T07:53:50.895Z,100482.44
2022-12-31T07:56:18.882Z,100490.44
2022-12-31T07:59:00.132Z,100499.56
2022-12-31T08:01:36.488Z,100484.31
2022-12-31T08:04:09.099Z,100472.63
2022-12-31T08:06:41.813Z,100477.06
2022-12-31T08:09:17.283Z,100484.03
2022-12-31T08:11:48.871Z,100489.31
2022-12-31T08:14:17.254Z,100477.47
2022-12-31T08:16:47.144Z,100474.03
2022-12-31T08:19:24.602Z,100474.03
2022-12-31T08:22:02.553Z,100474.19
2022-12-31T08:24:36.289Z,100480.47
2022-12-31T08:27:07.492Z,100483.88
2022-12-31T08:29:37.302Z,100475.19
2022-12-31T08:32:11.571Z,100488.59
2022-12-31T08:34:45.760Z,100499.13
2022-12-31T08:37:17.065Z,100513.09
2022-12-31T08:39:57.384Z,100513.41
2022-12-31T08:42:31.413Z,100499.28
2022-12-31T08:45:05.704Z,100483.31
2022-12-31T08:47:43.821Z,100478.91
2022-12-31T08:50:15.404Z,100464.06
2022-12-31T08:52:43.844Z,100471.91
2022-12-31T08:55:15.663Z,100482.47
2022-12-31T08:57:47.583Z,100483.59
2022-12-31T09:00:17.444Z,100479.03
2022-12-31T09:03:11.360Z,100479.91
2022-12-31T09:05:55.179Z,100483.88
2022-12-31T09:08:29.831Z,100491.16
2022-12-31T09:11:00.759Z,100485.16
2022-12-31T09:13:36.136Z,100483.72
2022-12-31T09:16:11.895Z,100493.41
2022-12-31T09:18:43.630Z,100496.13
2022-12-31T09:21:12.650Z,100484.88
2022-12-31T09:23:41.258Z,100496.00
2022-12-31T09:26:15.605Z,100501.56
2022-12-31T09:28:49.908Z,100496.28
2022-12-31T09:31:19.717Z,100491.72
2022-12-31T09:33:52.902Z,100513.97
2022-12-31T09:36:24.822Z,100525.97
2022-12-31T09:38:55.596Z,100523.81
2022-12-31T09:41:36.439Z,100521.81
2022-12-31T09:44:37.382Z,100527.78
2022-12-31T09:47:37.778Z,100518.66
2022-12-31T09:50:22.471Z,100526.22
2022-12-31T09:53:06.105Z,100522.78
2022-12-31T09:55:38.222Z,100518.81
2022-12-31T09:58:19.330Z,100511.53
2022-12-31T10:00:51.809Z,100517.66
2022-12-31T10:03:35.786Z,100516.63
2022-12-31T10:06:16.177Z,100519.47
2022-12-31T10:08:56.701Z,100512.03
2022-12-31T10:11:30.875Z,100522.63
2022-12-31T10:14:09.092Z,100511.50
2022-12-31T10:16:50.741Z,100515.03
2022-12-31T10:19:49.718Z,100482.09
2022-12-31T10:22:35.705Z,100480.81
2022-12-31T10:25:20.350Z,100483.75
2022-12-31T10:28:12.095Z,100482.34
2022-12-31T10:30:49.863Z,100477.88
2022-12-31T10:33:19.279Z,100472.22
2022-12-31T10:35:55.988Z,100472.22
2022-12-31T10:38:31.180Z,100482.63
2022-12-31T10:41:58.608Z,100483.34
2022-12-31T10:44:59.466Z,100470.88
2022-12-31T10:47:58.510Z,100485.84
2022-12-31T10:50:58.077Z,100482.72
2022-12-31T10:53:47.972Z,100466.25
2022-12-31T10:56:54.198Z,100460.13
2022-12-31T11:00:03.704Z,100469.06
2022-12-31T11:02:52.601Z,100472.66
2022-12-31T11:06:06.122Z,100477.28
2022-12-31T11:09:04.774Z,100486.34
2022-12-31T11:11:36.565Z,100501.13
2022-12-31T11:14:29.775Z,100535.66
2022-12-31T11:17:17.397Z,100530.09
2022-12-31T11:19:50.947Z,100521.50
2022-12-31T11:22:33.540Z,100514.00
2022-12-31T11:25:20.585Z,100523.06
2022-12-31T11:27:58.035Z,100530.50
2022-12-31T11:30:30.296Z,100535.56
2022-12-31T11:33:12.074Z,100528.34
2022-12-31T11:35:51.655Z,100536.63
2022-12-31T11:38:24.814Z,100543.94
2022-12-31T11:41:01.952Z,100532.16
2022-12-31T11:43:35.634Z,100525.78
2022-12-31T11:46:18.059Z,100528.09
2022-12-31T11:48:55.177Z,100518.00
2022-12-31T11:51:38.030Z,100531.28
2022-12-31T11:54:41.447Z,100528.19
2022-12-31T11:57:19.545Z,100507.41
2022-12-31T11:59:47.944Z,100509.72
2022-12-31T12:02:27.762Z,100504.44
2022-12-31T12:04:57.120Z,100499.31
2022-12-31T12:07:25.226Z,100511.28
2022-12-31T12:09:54.276Z,100509.03
2022-12-31T12:12:23.652Z,100509.34
2022-12-31T12:14:55.092Z,100501.50
2022-12-31T12:17:31.963Z,100490.88
2022-12-31T12:20:03.326Z,100497.78
2022-12-31T12:22:32.770Z,100495.19
2022-12-31T12:25:04.736Z,100481.31
2022-12-31T12:27:35.916Z,100482.97
2022-12-31T12:30:11.781Z,100479.00
2022-12-31T12:32:39.768Z,100471.81
2022-12-31T12:35:20.340Z,100469.75
2022-12-31T12:37:48.270Z,100475.75
2022-12-31T12:40:22.357Z,100472.59
2022-12-31T12:42:53.390Z,100472.16
2022-12-31T12:45:23.189Z,100471.84
2022-12-31T12:47:56.665Z,100461.28
2022-12-31T12:50:27.761Z,100452.25
2022-12-31T12:53:08.866Z,100449.34
2022-12-31T12:55:42.812Z,100441.75
2022-12-31T12:58:22.106Z,100434.34
2022-12-31T13:00:54.215Z,100437.06
2022-12-31T13:04:33.489Z,100436.00
2022-12-31T13:07:09.458Z,100444.84
2022-12-31T13:09:50.964Z,100437.34
2022-12-31T13:12:24.543Z,100441.19
2022-12-31T13:14:59.269Z,100440.63
2022-12-31T13:17:49.794Z,100452.53
2022-12-31T13:20:27.906Z,100451.31
2022-12-31T13:23:02.132Z,100443.22
2022-12-31T13:25:37.968Z,100454.28
2022-12-31T13:28:09.035Z,100454.47
2022-12-31T13:30:41.103Z,100436.56
2022-12-31T13:33:16.600Z,100438.16
2022-12-31T13:35:48.889Z,100441.88
2022-12-31T13:38:22.722Z,100447.00
2022-12-31T13:40:59.712Z,100454.78
2022-12-31T13:43:39.204Z,100449.53
2022-12-31T13:46:17.653Z,100449.72
2022-12-31T13:48:55.901Z,100456.00
2022-12-31T13:51:31.823Z,100459.53
2022-12-31T13:54:03.189Z,100456.69
2022-12-31T13:56:36.936Z,100452.84
2022-12-31T13:59:07.865Z,100466.59
2022-12-31T14:01:41.329Z,100461.44
2022-12-31T14:04:15.112Z,100459.19
2022-12-31T14:06:46.878Z,100463.84
2022-12-31T14:09:20.541Z,100482.34
2022-12-31T14:15:05.930Z,100476.47
2022-12-31T14:17:42.702Z,100474.63
2022-12-31T14:20:20.676Z,100473.59
2022-12-31T14:22:56.368Z,100489.59
2022-12-31T14:25:29.966Z,100505.41
2022-12-31T14:28:02.417Z,100500.44
2022-12-31T14:30:40.516Z,100499.31
2022-12-31T14:33:45.946Z,100513.22
2022-12-31T14:36:27.303Z,100497.34
2022-12-31T14:39:11.654Z,100506.09
2022-12-31T14:41:46.563Z,100517.16
2022-12-31T14:44:25.826Z,100523.53
2022-12-31T14:47:04.837Z,100519.66
2022-12-31T14:49:43.268Z,100513.84
2022-12-31T14:52:22.503Z,100519.28
2022-12-31T14:55:04.887Z,100518.19
2022-12-31T14:58:27.904Z,100523.16
2022-12-31T15:01:03.656Z,100520.13
2022-12-31T15:03:42.979Z,100524.25
2022-12-31T15:06:36.723Z,100522.91
2022-12-31T15:09:10.771Z,100540.25
2022-12-31T15:11:59.254Z,100548.66
2022-12-31T15:14:40.184Z,100556.03
2022-12-31T15:17:16.601Z,100549.56
2022-12-31T15:20:17.649Z,100565.63
2022-12-31T15:22:48.204Z,100565.47
2022-12-31T15:25:22.807Z,100559.22
2022-12-31T15:27:51.175Z,100592.66
2022-12-31T15:30:35.832Z,100577.50
2022-12-31T15:33:06.331Z,100572.75
2022-12-31T15:35:47.400Z,100579.75
2022-12-31T15:38:34.777Z,100574.88
2022-12-31T15:41:15.024Z,100567.84
2022-12-31T15:43:47.536Z,100587.75
2022-12-31T15:46:19.812Z,100584.28
2022-12-31T15:48:52.921Z,100584.72
2022-12-31T15:51:24.234Z,100600.59
2022-12-31T15:53:55.362Z,100610.81
2022-12-31T15:56:31.775Z,100612.88
2022-12-31T15:59:01.130Z,100617.81
2022-12-31T16:01:31.032Z,100619.94
2022-12-31T16:04:00.944Z,100604.41
2022-12-31T16:06:31.447Z,100591.69
2022-12-31T16:09:00.984Z,100590.72
2022-12-31T16:11:30.575Z,100600.44
2022-12-31T16:13:59.807Z,100616.31
2022-12-31T16:16:33.998Z,100623.34
2022-12-31T16:19:03.717Z,100624.50
2022-12-31T16:21:35.264Z,100613.41
2022-12-31T16:24:06.705Z,100627.19
2022-12-31T16:26:40.244Z,100608.78
2022-12-31T16:29:08.214Z,100619.31
2022-12-31T16:31:36.214Z,100628.00
2022-12-31T16:34:08.941Z,100632.28
2022-12-31T16:36:36.894Z,100625.28
2022-12-31T16:39:25.849Z,100619.38
2022-12-31T16:41:54.890Z,100619.25
2022-12-31T16:44:27.398Z,100615.63
2022-12-31T16:46:58.314Z,100619.94
2022-12-31T16:49:26.728Z,100627.00
2022-12-31T16:51:57.424Z,100621.88
2022-12-31T16:54:30.493Z,100616.91
2022-12-31T16:56:58.965Z,100612.22
2022-12-31T16:59:34.872Z,100607.97
2022-12-31T17:02:04.959Z,100611.38
2022-12-31T17:04:32.996Z,100610.81
2022-12-31T17:07:28.767Z,100597.13
2022-12-31T17:10:15.714Z,100609.28
2022-12-31T17:13:25.562Z,100596.25
2022-12-31T17:15:40.830Z,100600.44
2022-12-31T17:18:09.912Z,100610.56
2022-12-31T17:20:38.162Z,100615.28
2022-12-31T17:23:08.198Z,100617.03
2022-12-31T17:25:38.483Z,100624.44
2022-12-31T17:28:08.734Z,100608.19
2022-12-31T17:30:41.626Z,100609.28
2022-12-31T17:33:28.264Z,100617.53
2022-12-31T17:35:57.247Z,100619.88
2022-12-31T17:38:33.676Z,100629.31
2022-12-31T17:41:24.132Z,100624.03
2022-12-31T17:43:53.549Z,100609.84
2022-12-31T17:46:21.652Z,100631.28
2022-12-31T17:48:52.864Z,100629.47
2022-12-31T17:51:24.581Z,100612.25
2022-12-31T17:53:52.948Z,100621.88
2022-12-31T17:56:22.426Z,100629.31
2022-12-31T17:58:51.736Z,100624.66
2022-12-31T18:01:21.381Z,100631.34
2022-12-31T18:03:50.125Z,100620.22
2022-12-31T18:06:19.646Z,100617.91
2022-12-31T18:08:48.093Z,100623.03
2022-12-31T18:11:18.670Z,100624.56
2022-12-31T18:13:48.641Z,100625.19
2022-12-31T18:16:16.856Z,100624.44
2022-12-31T18:18:45.360Z,100617.22
2022-12-31T18:21:18.027Z,100617.53
2022-12-31T18:23:47.970Z,100611.00
2022-12-31T18:26:16.874Z,100612.84
2022-12-31T18:28:45.448Z,100605.78
2022-12-31T18:31:18.571Z,100590.63
2022-12-31T18:33:48.084Z,100591.16
2022-12-31T18:36:17.438Z,100588.44
2022-12-31T18:38:45.824Z,100579.44
2022-12-31T18:41:18.627Z,100582.28
2022-12-31T18:43:47.012Z,100571.72
2022-12-31T18:46:18.498Z,100570.88
2022-12-31T18:48:46.717Z,100554.81
2022-12-31T18:51:15.215Z,100574.38
2022-12-31T18:53:43.340Z,100562.91
2022-12-31T18:56:13.486Z,100577.16
2022-12-31T18:58:41.851Z,100580.28
2022-12-31T19:01:25.611Z,100579.19
2022-12-31T19:03:54.050Z,100565.84
2022-12-31T19:06:22.001Z,100551.25
2022-12-31T19:08:50.357Z,100560.91
2022-12-31T19:11:18.937Z,100566.72
2022-12-31T19:13:47.193Z,100568.63
2022-12-31T19:16:19.182Z,100570.88
2022-12-31T19:18:52.419Z,100570.94
2022-12-31T19:21:24.528Z,100572.78
2022-12-31T19:24:01.314Z,100566.75
2022-12-31T19:26:30.588Z,100562.63
2022-12-31T19:29:27.997Z,100544.13
2022-12-31T19:32:04.411Z,100523.81
2022-12-31T19:34:39.730Z,100530.47
2022-12-31T19:37:14.947Z,100527.38
2022-12-31T19:39:50.408Z,100517.53
2022-12-31T19:42:24.389Z,100510.75
2022-12-31T19:44:59.556Z,100512.16
2022-12-31T19:47:39.288Z,100485.94
2022-12-31T19:50:14.467Z,100497.41
2022-12-31T19:52:43.428Z,100493.41
2022-12-31T19:55:20.145Z,100477.91
2022-12-31T19:57:50.742Z,100471.41
2022-12-31T20:00:23.212Z,100476.19
2022-12-31T20:03:02.523Z,100475.06
2022-12-31T20:05:35.050Z,100473.56
2022-12-31T20:08:12.440Z,100477.97
2022-12-31T20:10:51.317Z,100469.16
2022-12-31T20:13:26.409Z,100465.31
2022-12-31T20:16:03.826Z,100448.03
2022-12-31T20:18:34.733Z,100445.25
2022-12-31T20:21:05.557Z,100446.03
2022-12-31T20:23:41.802Z,100426.25
2022-12-31T20:26:15.298Z,100423.53
2022-12-31T20:28:58.400Z,100408.47
2022-12-31T20:31:32.249Z,100402.56
2022-12-31T20:34:01.665Z,100397.09
2022-12-31T20:36:36.271Z,100391.47
2022-12-31T20:39:13.211Z,100382.34
2022-12-31T20:41:49.789Z,100384.47
2022-12-31T20:44:29.887Z,100374.97
2022-12-31T20:47:13.297Z,100363.69
2022-12-31T20:50:10.491Z,100372.34
2022-12-31T20:52:40.773Z,100373.94
2022-12-31T20:55:22.399Z,100355.34
2022-12-31T20:57:55.299Z,100376.50
2022-12-31T21:00:33.784Z,100341.47
2022-12-31T21:03:18.811Z,100343.59
2022-12-31T21:06:10.851Z,100336.19
2022-12-31T21:09:00.890Z,100336.25
2022-12-31T21:11:56.494Z,100336.53
2022-12-31T21:14:42.807Z,100330.03
2022-12-31T21:17:12.995Z,100319.16
2022-12-31T21:19:41.206Z,100308.03
2022-12-31T21:22:09.478Z,100300.34
2022-12-31T21:24:39.221Z,100284.28
2022-12-31T21:27:07.463Z,100273.75
2022-12-31T21:29:41.859Z,100282.94
2022-12-31T21:32:18.588Z,100286.69
2022-12-31T21:35:06.400Z,100291.78
2022-12-31T21:37:58.449Z,100280.38
2022-12-31T21:40:24.840Z,100278.53
2022-12-31T21:42:53.282Z,100291.09
2022-12-31T21:45:21.281Z,100286.19
2022-12-31T21:48:06.924Z,100285.16
2022-12-31T21:50:35.313Z,100280.72
2022-12-31T21:53:03.784Z,100288.09
2022-12-31T21:55:50.631Z,100285.50
2022-12-31T21:58:27.764Z,100276.47
2022-12-31T22:01:16.289Z,100271.03
2022-12-31T22:03:44.938Z,100272.34
2022-12-31T22:06:42.523Z,100287.38
2022-12-31T22:09:10.766Z,100274.28
2022-12-31T22:11:40.286Z,100276.94
2022-12-31T22:14:10.897Z,100274.94
2022-12-31T22:16:39.334Z,100262.19
2022-12-31T22:19:10.505Z,100263.22
2022-12-31T22:21:58.512Z,100265.09
2022-12-31T22:24:33.115Z,100259.81
2022-12-31T22:27:28.329Z,100264.91
2022-12-31T22:29:59.398Z,100261.66
2022-12-31T22:32:27.577Z,100271.75
2022-12-31T22:38:11.909Z,100277.56
2022-12-31T22:42:31.338Z,100279.22
2022-12-31T22:44:42.672Z,100267.13
2022-12-31T22:50:21.939Z,100269.03
2022-12-31T22:52:50.044Z,100268.78
2022-12-31T22:55:25.353Z,100272.59
2022-12-31T22:57:53.546Z,100266.59
2022-12-31T23:00:38.921Z,100272.22
2022-12-31T23:03:10.879Z,100289.66
2022-12-31T23:05:41.602Z,100286.75
2022-12-31T23:08:17.202Z,100300.03
2022-12-31T23:11:00.222Z,100300.84
2022-12-31T23:13:50.538Z,100293.34
2022-12-31T23:20:54.759Z,100289.81
2022-12-31T23:48:15.590Z,100292.19
2022-12-31T23:50:52.436Z,100292.88
2022-12-31T23:53:21.757Z,100292.88
2022-12-31T23:55:51.433Z,100312.75
2022-12-31T23:58:25.212Z,100304.44
